Time;durP1;ratioP1;P1;durP2;ratioP2;P2;SDS_P1;SDS_P2;PMS_P1;PMS_P2;Temp;Humidity;BMP_temperature;BMP_pressure;BME280_temperature;BME280_humidity;BME280_pressure;Samples;Min_cycle;Max_cycle;Signal;HPM_P1;HPM_P2
2022/01/07 00:01:22;;;;;;;5.10;2.10;;;;;;100676.16;;;;107004;1280;64869;-39
2022/01/07 00:03:51;;;;;;;4.50;2.10;;;;;;100678.97;;;;106878;1280;65894;-37
2022/01/07 00:06:19;;;;;;;4.30;2.00;;;;;;100681.74;;;;106972;1280;64723;-39
2022/01/07 00:08:46;;;;;;;4.60;2.10;;;;;;100687.04;;;;106997;1280;64774;-34
2022/01/07 00:11:14;;;;;;;4.80;1.80;;;;;;100687.89;;;;106913;1279;63572;-35
2022/01/07 00:13:42;;;;;;;5.00;2.10;;;;;;100691.31;;;;107009;1280;64879;-35
2022/01/07 00:16:11;;;;;;;4.50;2.00;;;;;;100688.21;;;;106757;1281;66132;-36
2022/01/07 00:18:44;;;;;;;4.70;1.90;;;;;;100689.48;;;;106968;1279;64748;-47
2022/01/07 00:21:12;;;;;;;5.40;2.30;;;;;;100692.80;;;;106969;1279;64895;-48
2022/01/07 00:23:39;;;;;;;4.60;2.00;;;;;;100694.27;;;;106944;1279;64777;-38
2022/01/07 00:26:06;;;;;;;5.90;2.10;;;;;;100694.02;;;;106989;1278;64802;-39
2022/01/07 00:28:34;;;;;;;5.10;2.00;;;;;;100696.77;;;;106958;1280;65102;-42
2022/01/07 00:31:01;;;;;;;5.20;2.30;;;;;;100696.48;;;;106950;1280;64721;-44
2022/01/07 00:33:29;;;;;;;4.80;2.40;;;;;;100701.34;;;;106938;1280;64778;-34
2022/01/07 00:35:56;;;;;;;4.70;2.30;;;;;;100703.91;;;;106799;1278;64764;-41
2022/01/07 00:38:23;;;;;;;5.30;2.50;;;;;;100705.67;;;;106980;1279;64739;-40
2022/01/07 00:40:51;;;;;;;6.10;2.50;;;;;;100714.47;;;;106981;1280;65881;-38
2022/01/07 00:43:18;;;;;;;6.20;2.70;;;;;;100714.38;;;;106965;1280;64797;-40
2022/01/07 00:45:45;;;;;;;5.80;2.80;;;;;;100715.34;;;;106974;1280;64805;-53
2022/01/07 00:48:12;;;;;;;5.60;2.70;;;;;;100720.02;;;;106943;1280;64895;-51
2022/01/07 00:50:41;;;;;;;5.10;2.60;;;;;;100722.08;;;;107017;1280;64718;-47
2022/01/07 00:53:08;;;;;;;5.20;2.60;;;;;;100723.08;;;;106994;1280;66466;-43
2022/01/07 00:55:36;;;;;;;5.80;2.70;;;;;;100722.92;;;;106931;1279;64746;-36
2022/01/07 00:58:04;;;;;;;5.90;2.40;;;;;;100721.85;;;;106984;1280;64722;-38
2022/01/07 01:00:31;;;;;;;5.20;2.50;;;;;;100721.90;;;;107006;1280;64778;-42
2022/01/07 01:02:59;;;;;;;5.90;2.50;;;;;;100725.63;;;;106719;1280;328031;-42
2022/01/07 01:05:28;;;;;;;6.00;2.70;;;;;;100726.52;;;;107009;1278;64900;-34
2022/01/07 01:07:56;;;;;;;5.40;2.80;;;;;;100733.19;;;;106848;1280;64745;-35
2022/01/07 01:10:25;;;;;;;5.90;2.80;;;;;;100732.76;;;;106999;1280;64737;-44
2022/01/07 01:12:54;;;;;;;5.10;2.30;;;;;;100728.83;;;;106979;1280;64779;-43
2022/01/07 01:15:26;;;;;;;5.70;2.50;;;;;;100731.48;;;;107050;1279;64875;-35
2022/01/07 01:17:57;;;;;;;6.30;2.60;;;;;;100726.58;;;;106887;1280;64783;-35
2022/01/07 01:20:25;;;;;;;6.30;2.90;;;;;;100728.46;;;;106850;1280;64895;-42
2022/01/07 01:22:53;;;;;;;5.70;2.90;;;;;;100727.56;;;;106997;1280;63962;-35
2022/01/07 01:25:20;;;;;;;6.80;2.60;;;;;;100726.20;;;;106944;1280;64763;-43
2022/01/07 01:27:48;;;;;;;5.60;2.90;;;;;;100724.32;;;;107000;1280;64795;-43
2022/01/07 01:30:17;;;;;;;5.00;2.30;;;;;;100718.67;;;;106965;1280;65885;-44
2022/01/07 01:32:47;;;;;;;6.10;2.80;;;;;;100717.23;;;;106998;1280;64879;-43
2022/01/07 01:35:15;;;;;;;6.80;2.80;;;;;;100718.31;;;;106988;1278;64904;-34
2022/01/07 01:37:43;;;;;;;5.10;2.80;;;;;;100718.58;;;;106868;1279;64792;-34
2022/01/07 01:40:11;;;;;;;5.80;2.70;;;;;;100716.70;;;;106956;1280;64760;-35
2022/01/07 01:42:39;;;;;;;5.40;2.50;;;;;;100717.11;;;;106909;1280;66285;-34
2022/01/07 01:45:10;;;;;;;6.00;2.90;;;;;;100717.00;;;;106989;1280;64775;-41
2022/01/07 01:47:38;;;;;;;6.40;3.00;;;;;;100721.45;;;;106984;1280;64765;-42
2022/01/07 01:50:07;;;;;;;6.10;2.70;;;;;;100725.14;;;;106952;1280;64734;-44
2022/01/07 01:52:35;;;;;;;5.70;2.30;;;;;;100730.09;;;;107035;1280;64767;-41
2022/01/07 01:55:05;;;;;;;5.50;2.80;;;;;;100730.83;;;;106806;1280;67128;-42
2022/01/07 01:57:32;;;;;;;6.40;2.90;;;;;;100735.34;;;;106934;1279;64969;-44
2022/01/07 01:59:59;;;;;;;5.40;2.20;;;;;;100735.92;;;;106829;1280;64754;-36
2022/01/07 02:02:27;;;;;;;6.10;2.80;;;;;;100741.64;;;;106980;1278;63480;-36
2022/01/07 02:04:55;;;;;;;5.80;2.80;;;;;;100746.70;;;;106989;1280;64873;-43
2022/01/07 02:07:26;;;;;;;7.40;2.90;;;;;;100744.80;;;;106983;1280;64870;-42
2022/01/07 02:09:54;;;;;;;5.50;2.70;;;;;;100743.89;;;;107001;1278;64605;-35
2022/01/07 02:12:21;;;;;;;6.20;3.00;;;;;;100744.50;;;;106893;1280;64749;-35
2022/01/07 02:14:55;;;;;;;5.40;3.00;;;;;;100746.47;;;;106950;1279;64638;-42
2022/01/07 02:17:25;;;;;;;5.20;2.50;;;;;;100757.70;;;;106865;1280;64783;-42
2022/01/07 02:19:56;;;;;;;5.20;2.90;;;;;;100756.63;;;;106993;1280;64904;-35
2022/01/07 02:22:24;;;;;;;5.40;2.40;;;;;;100756.81;;;;106851;1280;64810;-35
2022/01/07 02:24:53;;;;;;;6.40;2.90;;;;;;100755.23;;;;107013;1280;64739;-35
2022/01/07 02:27:20;;;;;;;5.00;2.70;;;;;;100751.64;;;;106974;1280;64754;-36
2022/01/07 02:29:50;;;;;;;6.00;2.60;;;;;;100749.06;;;;106938;1279;64654;-42
2022/01/07 02:32:19;;;;;;;6.80;2.70;;;;;;100750.05;;;;106920;1279;66682;-45
2022/01/07 02:34:48;;;;;;;6.20;2.90;;;;;;100751.00;;;;106783;1281;64795;-35
2022/01/07 02:37:15;;;;;;;5.10;2.40;;;;;;100761.73;;;;106892;1281;64878;-35
2022/01/07 02:39:45;;;;;;;6.20;2.60;;;;;;100763.27;;;;106894;1281;64775;-44
2022/01/07 02:42:12;;;;;;;6.10;3.00;;;;;;100765.33;;;;106899;1281;64929;-46
2022/01/07 02:44:40;;;;;;;5.40;2.50;;;;;;100767.77;;;;106781;1281;66264;-36
2022/01/07 02:47:08;;;;;;;5.80;2.90;;;;;;100772.20;;;;106844;1280;64760;-42
2022/01/07 02:49:36;;;;;;;5.70;2.70;;;;;;100768.11;;;;106835;1281;64880;-35
2022/01/07 02:52:03;;;;;;;4.70;2.30;;;;;;100770.20;;;;106860;1281;64758;-35
2022/01/07 02:54:31;;;;;;;5.90;2.50;;;;;;100763.89;;;;106937;1281;64758;-35
2022/01/07 02:56:58;;;;;;;5.50;2.60;;;;;;100763.91;;;;106942;1280;65979;-35
2022/01/07 02:59:25;;;;;;;5.20;2.50;;;;;;100766.29;;;;106792;1280;64977;-41
2022/01/07 03:01:52;;;;;;;6.40;2.70;;;;;;100772.23;;;;106903;1281;64651;-43
2022/01/07 03:04:20;;;;;;;6.10;2.80;;;;;;100777.97;;;;106848;1280;64907;-44
2022/01/07 03:06:47;;;;;;;6.30;2.60;;;;;;100778.27;;;;106906;1281;64728;-42
2022/01/07 03:09:14;;;;;;;5.60;2.50;;;;;;100784.34;;;;106904;1281;67242;-35
2022/01/07 03:11:41;;;;;;;5.70;2.80;;;;;;100780.02;;;;106886;1281;64734;-35
2022/01/07 03:14:09;;;;;;;5.80;2.70;;;;;;100781.40;;;;106904;1281;64768;-35
2022/01/07 03:16:38;;;;;;;6.50;2.80;;;;;;100779.42;;;;106890;1281;64880;-35
2022/01/07 03:19:06;;;;;;;4.70;2.50;;;;;;100782.93;;;;106775;1281;64794;-36
2022/01/07 03:21:33;;;;;;;5.80;2.70;;;;;;100779.20;;;;106851;1281;64879;-36
2022/01/07 03:24:01;;;;;;;6.70;3.10;;;;;;100779.08;;;;106907;1281;64773;-35
2022/01/07 03:26:28;;;;;;;6.20;2.90;;;;;;100781.10;;;;106911;1280;64900;-35
2022/01/07 03:28:55;;;;;;;4.70;2.30;;;;;;100781.50;;;;106890;1281;64877;-40
2022/01/07 03:31:22;;;;;;;6.30;2.80;;;;;;100784.63;;;;106935;1281;64875;-42
2022/01/07 03:33:50;;;;;;;5.50;2.50;;;;;;100783.24;;;;106918;1281;66930;-42
2022/01/07 03:36:17;;;;;;;5.60;2.90;;;;;;100788.52;;;;106895;1281;64795;-42
2022/01/07 03:38:44;;;;;;;6.00;2.50;;;;;;100787.27;;;;106906;1281;64856;-44
2022/01/07 03:41:11;;;;;;;6.30;3.10;;;;;;100788.27;;;;106787;1281;65063;-35
2022/01/07 03:43:38;;;;;;;4.90;2.60;;;;;;100791.72;;;;106784;1281;64851;-35
2022/01/07 03:46:06;;;;;;;5.90;2.80;;;;;;100791.92;;;;106926;1281;66505;-35
2022/01/07 03:48:33;;;;;;;6.50;3.00;;;;;;100791.52;;;;106811;1281;65574;-35
2022/01/07 03:51:01;;;;;;;5.70;3.00;;;;;;100793.95;;;;106902;1281;64906;-43
2022/01/07 03:53:28;;;;;;;5.20;2.50;;;;;;100796.52;;;;106898;1281;64736;-43
2022/01/07 03:55:55;;;;;;;5.70;2.80;;;;;;100793.16;;;;106822;1281;64767;-35
2022/01/07 03:58:22;;;;;;;5.20;2.90;;;;;;100793.55;;;;106950;1280;66664;-35
2022/01/07 04:00:50;;;;;;;5.40;2.60;;;;;;100796.34;;;;106871;1280;64792;-35
2022/01/07 04:03:18;;;;;;;6.00;2.80;;;;;;100791.63;;;;106901;1281;64851;-35
2022/01/07 04:05:46;;;;;;;5.50;2.80;;;;;;100789.44;;;;106888;1281;64983;-45
2022/01/07 04:08:14;;;;;;;5.60;2.70;;;;;;100791.84;;;;106823;1281;64880;-42
2022/01/07 04:10:41;;;;;;;5.20;2.90;;;;;;100793.48;;;;106933;1281;66687;-35
2022/01/07 04:13:09;;;;;;;5.70;2.80;;;;;;100795.52;;;;106896;1281;64980;-35
2022/01/07 04:15:36;;;;;;;5.60;2.80;;;;;;100800.06;;;;106625;1281;64870;-35
2022/01/07 04:18:04;;;;;;;6.20;3.00;;;;;;100796.38;;;;106891;1281;64743;-35
2022/01/07 04:20:34;;;;;;;5.80;2.80;;;;;;100799.54;;;;106954;1280;64770;-35
2022/01/07 04:23:03;;;;;;;6.00;2.80;;;;;;100795.30;;;;106925;1281;66119;-37
2022/01/07 04:25:31;;;;;;;5.80;2.70;;;;;;100793.34;;;;106898;1281;64888;-35
2022/01/07 04:28:07;;;;;;;5.70;2.90;;;;;;100792.08;;;;106940;1281;65480;-35
2022/01/07 04:30:41;;;;;;;6.70;3.00;;;;;;100787.71;;;;106965;1280;64773;-34
2022/01/07 04:33:12;;;;;;;7.10;3.20;;;;;;100782.22;;;;106911;1280;64885;-35
2022/01/07 04:35:41;;;;;;;6.30;3.00;;;;;;100776.06;;;;106969;1280;67870;-36
2022/01/07 04:38:09;;;;;;;5.70;2.90;;;;;;100775.20;;;;106907;1281;64950;-37
2022/01/07 04:40:37;;;;;;;6.10;2.80;;;;;;100780.06;;;;106777;1279;64856;-42
2022/01/07 04:43:07;;;;;;;5.90;3.10;;;;;;100776.61;;;;106961;1280;64702;-43
2022/01/07 04:45:35;;;;;;;6.10;2.90;;;;;;100779.58;;;;106973;1280;64841;-35
2022/01/07 04:48:04;;;;;;;5.70;2.90;;;;;;100775.13;;;;106990;1280;65885;-35
2022/01/07 04:50:31;;;;;;;5.60;2.80;;;;;;100769.13;;;;106956;1279;64876;-35
2022/01/07 04:52:59;;;;;;;5.50;3.00;;;;;;100766.41;;;;106947;1279;65572;-34
2022/01/07 04:55:29;;;;;;;6.30;3.10;;;;;;100765.72;;;;106894;1280;64759;-41
2022/01/07 04:57:57;;;;;;;5.70;2.70;;;;;;100761.46;;;;106957;1279;64819;-43
2022/01/07 05:00:24;;;;;;;7.70;3.10;;;;;;100759.35;;;;106938;1279;65938;-35
2022/01/07 05:02:52;;;;;;;6.00;3.20;;;;;;100755.89;;;;106961;1279;64891;-35
2022/01/07 05:05:19;;;;;;;5.00;2.60;;;;;;100763.20;;;;106883;1280;64942;-42
2022/01/07 05:07:47;;;;;;;5.60;2.70;;;;;;100764.80;;;;106928;1279;64905;-41
2022/01/07 05:10:15;;;;;;;5.60;3.00;;;;;;100769.02;;;;106965;1279;64873;-42
2022/01/07 05:12:43;;;;;;;5.10;2.60;;;;;;100768.48;;;;106974;1280;66105;-43
2022/01/07 05:15:13;;;;;;;6.40;3.10;;;;;;100767.00;;;;106989;1279;64836;-35
2022/01/07 05:17:42;;;;;;;6.50;3.20;;;;;;100762.27;;;;106979;1278;64810;-35
2022/01/07 05:20:11;;;;;;;6.30;3.20;;;;;;100771.40;;;;106957;1279;65450;-42
2022/01/07 05:22:40;;;;;;;6.10;3.00;;;;;;100763.70;;;;107005;1280;64899;-41
2022/01/07 05:25:09;;;;;;;6.50;3.10;;;;;;100754.42;;;;107030;1280;66468;-41
2022/01/07 05:27:37;;;;;;;6.20;2.80;;;;;;100751.19;;;;106934;1279;64884;-42
2022/01/07 05:30:06;;;;;;;6.10;2.90;;;;;;100750.52;;;;106964;1280;65444;-42
2022/01/07 05:32:33;;;;;;;6.90;3.20;;;;;;100750.73;;;;106791;1281;65559;-43
2022/01/07 05:35:01;;;;;;;7.00;2.80;;;;;;100748.03;;;;106973;1280;64769;-35
2022/01/07 05:37:28;;;;;;;5.40;2.70;;;;;;100740.08;;;;106949;1280;64900;-35
2022/01/07 05:39:57;;;;;;;6.30;3.20;;;;;;100745.69;;;;106982;1279;64643;-35
2022/01/07 05:42:26;;;;;;;6.00;2.90;;;;;;100745.42;;;;106979;1279;64873;-35
2022/01/07 05:44:55;;;;;;;6.00;2.70;;;;;;100745.77;;;;106995;1280;64945;-42
2022/01/07 05:47:22;;;;;;;6.30;2.90;;;;;;100746.21;;;;106950;1280;64939;-42
2022/01/07 05:49:49;;;;;;;5.80;3.00;;;;;;100746.73;;;;106929;1279;64954;-35
2022/01/07 05:52:17;;;;;;;5.90;2.90;;;;;;100746.64;;;;106974;1280;64750;-35
2022/01/07 05:54:44;;;;;;;6.20;2.80;;;;;;100750.38;;;;106914;1279;64585;-35
2022/01/07 05:57:11;;;;;;;6.10;3.10;;;;;;100754.80;;;;106963;1280;64934;-35
2022/01/07 05:59:39;;;;;;;6.80;3.10;;;;;;100755.49;;;;106984;1280;63645;-42
2022/01/07 06:02:06;;;;;;;5.90;2.80;;;;;;100753.46;;;;106950;1279;64791;-43
2022/01/07 06:04:33;;;;;;;5.70;3.00;;;;;;100758.11;;;;106791;1281;64674;-41
2022/01/07 06:07:00;;;;;;;6.20;3.10;;;;;;100758.30;;;;106926;1279;64925;-42
2022/01/07 06:09:27;;;;;;;5.80;2.90;;;;;;100761.70;;;;106975;1280;64883;-41
2022/01/07 06:11:55;;;;;;;5.30;2.60;;;;;;100767.02;;;;106794;1279;64818;-42
2022/01/07 06:14:23;;;;;;;7.40;3.30;;;;;;100768.13;;;;106972;1280;65003;-43
2022/01/07 06:16:50;;;;;;;6.60;3.10;;;;;;100773.55;;;;106969;1280;64876;-42
2022/01/07 06:19:17;;;;;;;5.40;2.80;;;;;;100773.48;;;;106942;1279;64751;-35
2022/01/07 06:21:45;;;;;;;6.10;3.20;;;;;;100773.96;;;;106986;1278;64779;-34
2022/01/07 06:24:12;;;;;;;5.10;2.80;;;;;;100773.41;;;;106931;1279;64778;-42
2022/01/07 06:26:40;;;;;;;6.10;3.00;;;;;;100775.03;;;;106960;1279;65953;-42
2022/01/07 06:29:07;;;;;;;6.10;3.20;;;;;;100771.98;;;;106924;1279;64773;-34
2022/01/07 06:31:34;;;;;;;5.60;2.80;;;;;;100767.48;;;;106965;1279;65582;-35
2022/01/07 06:34:02;;;;;;;6.60;3.00;;;;;;100764.98;;;;106944;1279;64735;-42
2022/01/07 06:36:30;;;;;;;5.80;2.80;;;;;;100768.86;;;;106962;1279;64901;-44
2022/01/07 06:38:58;;;;;;;5.40;3.30;;;;;;100771.34;;;;106963;1279;64983;-43
2022/01/07 06:41:25;;;;;;;6.00;3.00;;;;;;100763.88;;;;106942;1280;64931;-42
2022/01/07 06:43:52;;;;;;;6.10;2.90;;;;;;100768.38;;;;106922;1279;64815;-35
2022/01/07 06:46:20;;;;;;;7.00;3.40;;;;;;100767.32;;;;106793;1280;64904;-35
2022/01/07 06:48:47;;;;;;;6.80;2.90;;;;;;100768.05;;;;106958;1279;64768;-41
2022/01/07 06:51:15;;;;;;;5.20;2.80;;;;;;100769.77;;;;106970;1280;65146;-43
2022/01/07 06:53:42;;;;;;;6.20;3.30;;;;;;100770.34;;;;106972;1279;64887;-42
2022/01/07 06:56:09;;;;;;;5.80;3.00;;;;;;100768.75;;;;106950;1279;64844;-35
2022/01/07 06:58:37;;;;;;;6.50;3.00;;;;;;100765.52;;;;106870;1280;64819;-36
2022/01/07 07:01:08;;;;;;;7.10;3.40;;;;;;100763.41;;;;106865;1280;64724;-42
2022/01/07 07:03:35;;;;;;;6.70;3.10;;;;;;100767.41;;;;106994;1280;65951;-43
2022/01/07 07:06:03;;;;;;;5.70;2.70;;;;;;100769.80;;;;106952;1280;64782;-34
2022/01/07 07:08:31;;;;;;;6.30;3.20;;;;;;100778.02;;;;106827;1280;64937;-34
2022/01/07 07:10:58;;;;;;;6.00;2.90;;;;;;100779.34;;;;106861;1279;64873;-43
2022/01/07 07:13:26;;;;;;;6.80;3.80;;;;;;100777.11;;;;106968;1280;65023;-42
2022/01/07 07:15:53;;;;;;;6.60;3.10;;;;;;100782.64;;;;106901;1280;66519;-42
2022/01/07 07:18:20;;;;;;;6.30;3.20;;;;;;100779.50;;;;106754;1279;64975;-45
2022/01/07 07:20:48;;;;;;;6.90;2.70;;;;;;100783.35;;;;106959;1280;64755;-42
2022/01/07 07:23:15;;;;;;;6.90;3.20;;;;;;100782.78;;;;106938;1280;64950;-46
2022/01/07 07:25:42;;;;;;;7.60;3.00;;;;;;100787.84;;;;106904;1280;64869;-43
2022/01/07 07:28:10;;;;;;;6.60;3.20;;;;;;100787.05;;;;106980;1280;66062;-41
2022/01/07 07:30:40;;;;;;;6.80;3.50;;;;;;100782.41;;;;106954;1280;64880;-43
2022/01/07 07:38:44;;;;;;;6.60;3.00;;;;;;100785.45;;;;106962;1280;64779;-35
2022/01/07 07:41:11;;;;;;;6.00;3.20;;;;;;100783.29;;;;106958;1279;64937;-42
2022/01/07 07:43:39;;;;;;;6.10;3.00;;;;;;100782.29;;;;106935;1279;64799;-44
2022/01/07 07:46:07;;;;;;;6.50;3.40;;;;;;100784.64;;;;106961;1280;64982;-44
2022/01/07 07:48:34;;;;;;;6.00;3.00;;;;;;100778.23;;;;106958;1280;65538;-42
2022/01/07 07:51:02;;;;;;;5.60;3.30;;;;;;100775.30;;;;107005;1280;64907;-42
2022/01/07 07:53:30;;;;;;;8.10;5.00;;;;;;100775.41;;;;106912;1280;66153;-42
2022/01/07 07:55:57;;;;;;;9.10;6.60;;;;;;100771.32;;;;106802;1280;64970;-35
2022/01/07 07:58:27;;;;;;;8.80;5.20;;;;;;100769.13;;;;106972;1280;64775;-46
2022/01/07 08:00:55;;;;;;;10.20;6.40;;;;;;100767.60;;;;106967;1280;64843;-35
2022/01/07 08:03:24;;;;;;;8.70;6.80;;;;;;100765.33;;;;107012;1280;64848;-35
2022/01/07 08:05:52;;;;;;;10.30;7.60;;;;;;100764.55;;;;107004;1278;65054;-43
2022/01/07 08:08:19;;;;;;;11.50;7.50;;;;;;100765.08;;;;106823;1280;64978;-43
2022/01/07 08:10:51;;;;;;;11.90;7.40;;;;;;100771.83;;;;106722;1282;64851;-43
2022/01/07 08:16:02;;;;;;;13.50;8.10;;;;;;100774.27;;;;106984;1280;64856;-42
2022/01/07 08:18:38;;;;;;;9.30;7.60;;;;;;100770.83;;;;106954;1280;66876;-43
2022/01/07 08:21:09;;;;;;;11.50;7.90;;;;;;100772.01;;;;106921;1280;64969;-41
2022/01/07 08:23:41;;;;;;;10.50;7.40;;;;;;100771.80;;;;107002;1280;64773;-42
2022/01/07 08:26:12;;;;;;;10.60;7.90;;;;;;100772.70;;;;106854;1281;64971;-37
2022/01/07 08:28:46;;;;;;;11.70;7.90;;;;;;100770.10;;;;106970;1280;64981;-49
2022/01/07 08:36:40;;;;;;;11.00;7.80;;;;;;100778.15;;;;106793;1281;64903;-35
2022/01/07 08:39:10;;;;;;;11.30;7.30;;;;;;100773.71;;;;106667;1281;64897;-31
2022/01/07 08:41:39;;;;;;;11.00;6.80;;;;;;100772.17;;;;106912;1281;62460;-32
2022/01/07 08:44:07;;;;;;;10.40;6.90;;;;;;100773.39;;;;106942;1281;65863;-30
2022/01/07 08:46:35;;;;;;;10.20;6.70;;;;;;100777.06;;;;106810;1281;64724;-29
2022/01/07 08:49:05;;;;;;;9.40;6.90;;;;;;100773.84;;;;106911;1281;64716;-29
2022/01/07 08:51:32;;;;;;;10.50;6.60;;;;;;100771.77;;;;106690;1281;64880;-25
2022/01/07 08:54:00;;;;;;;9.70;6.60;;;;;;100775.84;;;;106742;1281;64977;-29
2022/01/07 08:56:28;;;;;;;9.40;6.40;;;;;;100782.73;;;;106884;1281;66933;-29
2022/01/07 08:58:57;;;;;;;10.50;6.30;;;;;;100781.66;;;;106885;1281;64794;-27
2022/01/07 09:01:28;;;;;;;9.60;5.90;;;;;;100782.42;;;;106609;1279;439988;-25
2022/01/07 09:03:56;;;;;;;9.70;5.80;;;;;;100783.23;;;;106930;1279;64877;-26
2022/01/07 09:06:23;;;;;;;8.50;5.80;;;;;;100781.71;;;;106886;1281;65870;-25
2022/01/07 09:08:50;;;;;;;9.90;5.60;;;;;;100787.42;;;;106899;1281;65686;-26
2022/01/07 09:11:18;;;;;;;8.90;6.00;;;;;;100793.08;;;;106928;1279;64776;-26
2022/01/07 09:13:48;;;;;;;9.00;6.00;;;;;;100792.41;;;;106887;1281;64784;-25
2022/01/07 09:16:15;;;;;;;10.20;6.20;;;;;;100789.85;;;;106918;1281;64800;-27
2022/01/07 09:18:43;;;;;;;8.90;5.40;;;;;;100785.56;;;;106936;1281;64794;-27
2022/01/07 09:21:11;;;;;;;9.40;6.00;;;;;;100783.98;;;;106914;1281;66098;-28
2022/01/07 09:23:41;;;;;;;8.60;5.60;;;;;;100780.67;;;;106935;1281;64847;-27
2022/01/07 09:26:13;;;;;;;9.40;5.70;;;;;;100777.30;;;;106936;1281;64744;-29
2022/01/07 09:28:40;;;;;;;9.50;5.70;;;;;;100773.15;;;;106903;1281;64897;-28
2022/01/07 09:31:07;;;;;;;8.30;5.50;;;;;;100770.77;;;;106958;1281;64781;-27
2022/01/07 09:33:35;;;;;;;8.60;5.70;;;;;;100773.01;;;;106952;1281;65917;-27
2022/01/07 09:36:02;;;;;;;9.10;5.60;;;;;;100777.88;;;;106844;1281;64732;-26
2022/01/07 09:38:29;;;;;;;8.90;5.50;;;;;;100775.42;;;;106796;1281;64865;-27
2022/01/07 09:40:56;;;;;;;8.20;5.10;;;;;;100771.89;;;;106882;1280;65428;-26
2022/01/07 09:43:25;;;;;;;7.70;5.30;;;;;;100770.92;;;;106913;1281;64979;-27
2022/01/07 09:45:53;;;;;;;8.10;5.20;;;;;;100767.81;;;;106842;1281;64829;-27
2022/01/07 09:48:21;;;;;;;7.40;4.70;;;;;;100761.38;;;;106808;1281;64776;-29
2022/01/07 09:50:48;;;;;;;8.30;5.50;;;;;;100757.86;;;;106855;1281;64726;-28
2022/01/07 09:53:15;;;;;;;8.80;5.50;;;;;;100760.94;;;;106764;1281;65035;-28
2022/01/07 09:55:44;;;;;;;9.60;5.60;;;;;;100762.05;;;;106796;1281;64860;-28
2022/01/07 09:58:13;;;;;;;10.80;5.40;;;;;;100765.13;;;;106799;1281;66903;-26
2022/01/07 10:00:44;;;;;;;8.40;5.30;;;;;;100759.89;;;;106789;1281;64782;-28
2022/01/07 10:03:15;;;;;;;7.80;5.50;;;;;;100759.94;;;;106904;1281;64860;-27
2022/01/07 10:05:52;;;;;;;7.50;4.60;;;;;;100754.23;;;;106875;1281;64749;-28
2022/01/07 10:08:27;;;;;;;8.50;5.30;;;;;;100751.80;;;;106911;1281;64849;-28
2022/01/07 10:11:16;;;;;;;9.70;5.60;;;;;;100750.51;;;;106799;1281;67891;-27
2022/01/07 10:13:48;;;;;;;9.00;5.00;;;;;;100751.54;;;;106721;1281;64973;-27
2022/01/07 10:16:22;;;;;;;7.90;5.50;;;;;;100745.27;;;;106810;1281;65003;-27
2022/01/07 10:18:51;;;;;;;9.30;5.60;;;;;;100748.08;;;;106758;1281;65102;-28
2022/01/07 10:21:19;;;;;;;8.10;5.80;;;;;;100743.11;;;;106924;1281;64875;-26
2022/01/07 10:23:47;;;;;;;8.50;5.50;;;;;;100740.39;;;;106759;1281;66833;-30
2022/01/07 10:26:19;;;;;;;9.00;5.70;;;;;;100739.14;;;;106834;1281;65004;-29
2022/01/07 10:28:49;;;;;;;8.80;5.20;;;;;;100739.17;;;;106883;1281;64635;-29
2022/01/07 10:31:24;;;;;;;9.00;6.10;;;;;;100736.30;;;;106912;1280;64797;-31
2022/01/07 10:33:53;;;;;;;10.30;5.60;;;;;;100736.08;;;;106931;1281;65468;-25
2022/01/07 10:36:25;;;;;;;9.50;5.30;;;;;;100743.08;;;;106916;1281;66192;-29
2022/01/07 10:39:04;;;;;;;7.20;5.00;;;;;;100742.63;;;;106756;1281;64904;-28
2022/01/07 10:41:31;;;;;;;10.30;5.50;;;;;;100739.31;;;;106677;1281;64926;-27
2022/01/07 10:44:04;;;;;;;10.40;5.90;;;;;;100729.64;;;;106929;1281;64761;-28
2022/01/07 10:46:31;;;;;;;8.80;5.30;;;;;;100731.42;;;;106971;1281;64616;-27
2022/01/07 10:49:05;;;;;;;10.10;6.40;;;;;;100729.61;;;;106916;1281;64962;-27
2022/01/07 10:51:40;;;;;;;9.80;5.80;;;;;;100730.70;;;;106963;1280;65504;-27
2022/01/07 10:54:10;;;;;;;9.60;5.40;;;;;;100738.55;;;;106872;1281;65296;-28
2022/01/07 10:56:43;;;;;;;10.00;5.40;;;;;;100739.09;;;;106960;1281;64892;-28
2022/01/07 10:59:18;;;;;;;9.90;5.70;;;;;;100742.36;;;;106747;1281;64764;-28
2022/01/07 11:01:54;;;;;;;11.40;6.30;;;;;;100741.97;;;;106773;1281;69348;-28
2022/01/07 11:04:26;;;;;;;8.80;4.80;;;;;;100743.05;;;;106894;1281;64862;-28
2022/01/07 11:06:57;;;;;;;9.30;6.00;;;;;;100741.58;;;;106964;1281;64886;-28
2022/01/07 11:09:25;;;;;;;9.40;5.70;;;;;;100743.64;;;;106937;1280;64734;-29
2022/01/07 11:11:57;;;;;;;9.30;5.60;;;;;;100742.19;;;;106968;1281;64738;-31
2022/01/07 11:14:27;;;;;;;9.30;5.10;;;;;;100735.53;;;;106905;1281;65839;-36
2022/01/07 11:17:03;;;;;;;9.30;6.30;;;;;;100734.69;;;;106956;1280;64907;-28
2022/01/07 11:19:39;;;;;;;9.70;5.60;;;;;;100734.90;;;;106966;1280;64865;-31
2022/01/07 11:22:13;;;;;;;9.50;5.80;;;;;;100731.45;;;;106953;1280;64993;-29
2022/01/07 11:24:50;;;;;;;10.30;6.00;;;;;;100726.95;;;;107005;1280;64847;-29
2022/01/07 11:27:21;;;;;;;10.10;5.60;;;;;;100726.48;;;;106755;1281;67598;-29
2022/01/07 11:29:47;;;;;;;10.20;5.90;;;;;;100728.05;;;;106850;1281;64859;-28
2022/01/07 11:32:26;;;;;;;10.00;5.70;;;;;;100725.88;;;;106869;1280;64882;-28
2022/01/07 11:34:56;;;;;;;9.20;5.50;;;;;;100727.34;;;;106874;1280;64906;-30
2022/01/07 11:37:36;;;;;;;11.10;5.20;;;;;;100727.94;;;;106973;1280;64764;-35
2022/01/07 11:40:05;;;;;;;10.90;6.00;;;;;;100729.16;;;;106756;1280;68157;-28
2022/01/07 11:42:43;;;;;;;10.50;6.60;;;;;;100732.72;;;;106945;1280;65018;-34
2022/01/07 11:45:29;;;;;;;11.20;5.90;;;;;;100735.38;;;;106874;1281;64740;-28
2022/01/07 11:48:23;;;;;;;11.30;5.40;;;;;;100734.34;;;;106864;1279;64883;-28
2022/01/07 11:50:59;;;;;;;8.40;5.30;;;;;;100732.55;;;;106875;1281;64852;-27
2022/01/07 11:53:39;;;;;;;9.30;5.40;;;;;;100731.20;;;;106962;1281;67169;-27
2022/01/07 11:56:15;;;;;;;9.20;5.10;;;;;;100719.01;;;;106853;1280;64917;-27
2022/01/07 11:58:55;;;;;;;9.60;5.30;;;;;;100719.47;;;;106888;1281;64847;-28
2022/01/07 12:01:35;;;;;;;9.40;5.80;;;;;;100714.55;;;;106955;1280;64968;-29
2022/01/07 12:04:27;;;;;;;10.10;5.40;;;;;;100709.27;;;;106864;1280;64910;-28
2022/01/07 12:06:59;;;;;;;11.00;6.00;;;;;;100706.27;;;;106870;1280;67070;-28
2022/01/07 12:09:36;;;;;;;10.80;5.90;;;;;;100701.09;;;;106886;1281;64600;-28
2022/01/07 12:12:07;;;;;;;9.20;5.50;;;;;;100699.49;;;;106977;1280;64777;-27
2022/01/07 12:14:53;;;;;;;9.30;5.40;;;;;;100703.67;;;;106929;1280;64870;-29
2022/01/07 12:17:22;;;;;;;7.90;5.10;;;;;;100702.23;;;;106863;1281;64791;-28
2022/01/07 12:19:50;;;;;;;9.00;5.60;;;;;;100697.52;;;;106984;1280;64750;-26
2022/01/07 12:22:20;;;;;;;10.30;5.10;;;;;;100695.85;;;;106900;1281;64764;-28
2022/01/07 12:24:57;;;;;;;8.80;5.00;;;;;;100693.11;;;;106905;1280;64843;-31
2022/01/07 12:27:24;;;;;;;9.50;5.20;;;;;;100693.75;;;;106914;1280;64796;-33
2022/01/07 12:29:56;;;;;;;9.10;5.60;;;;;;100691.36;;;;106892;1280;64888;-29
2022/01/07 12:32:33;;;;;;;9.40;5.40;;;;;;100687.89;;;;106886;1281;65915;-29
2022/01/07 12:35:03;;;;;;;9.80;5.10;;;;;;100686.38;;;;106899;1279;64839;-28
2022/01/07 12:37:31;;;;;;;8.80;4.90;;;;;;100680.45;;;;106889;1279;64707;-26
2022/01/07 12:40:11;;;;;;;9.60;5.20;;;;;;100678.86;;;;106881;1280;64793;-26
2022/01/07 12:42:45;;;;;;;8.90;5.00;;;;;;100675.80;;;;106903;1280;64816;-27
2022/01/07 12:45:19;;;;;;;11.10;4.60;;;;;;100677.83;;;;106908;1281;64898;-26
2022/01/07 12:47:46;;;;;;;9.00;5.30;;;;;;100677.08;;;;106868;1281;64755;-27
2022/01/07 12:50:16;;;;;;;8.90;5.00;;;;;;100674.34;;;;106839;1281;64726;-29
2022/01/07 12:52:44;;;;;;;8.90;5.10;;;;;;100672.00;;;;106871;1280;65007;-28
2022/01/07 12:55:21;;;;;;;8.50;4.90;;;;;;100668.77;;;;106922;1279;64995;-25
2022/01/07 12:57:51;;;;;;;10.20;4.80;;;;;;100666.41;;;;106577;1281;67591;-27
2022/01/07 13:00:30;;;;;;;8.10;4.60;;;;;;100667.44;;;;106819;1280;64891;-25
2022/01/07 13:03:14;;;;;;;9.00;5.00;;;;;;100666.89;;;;106884;1280;64877;-25
2022/01/07 13:05:42;;;;;;;;;;;;;;100667.61;;;;106833;1280;64883;-27
2022/01/07 13:08:13;;;;;;;10.00;5.20;;;;;;100668.95;;;;106811;1281;64839;-27
2022/01/07 13:10:43;;;;;;;8.50;4.40;;;;;;100665.84;;;;106902;1281;64807;-26